sensor_id;sensor_type;location;lat;lon;timestamp;pressure;altitude;pressure_sealevel;temperature;humidity
61528;BME280;47395;42.032;-8.634;2022-08-21T00:01:52;101331.97;;;22.01;64.69
61528;BME280;47395;42.032;-8.634;2022-08-21T00:03:52;101347.06;;;22.02;63.86
61528;BME280;47395;42.032;-8.634;2022-08-21T00:05:53;101346.50;;;21.99;64.32
61528;BME280;47395;42.032;-8.634;2022-08-21T00:07:55;101349.31;;;21.97;64.21
61528;BME280;47395;42.032;-8.634;2022-08-21T00:09:56;101354.94;;;21.94;64.28
61528;BME280;47395;42.032;-8.634;2022-08-21T00:11:57;101353.25;;;21.93;64.56
61528;BME280;47395;42.032;-8.634;2022-08-21T00:13:59;101354.25;;;21.92;64.24
61528;BME280;47395;42.032;-8.634;2022-08-21T00:16:00;101354.25;;;21.92;64.00
61528;BME280;47395;42.032;-8.634;2022-08-21T00:18:03;101352.53;;;21.91;64.77
61528;BME280;47395;42.032;-8.634;2022-08-21T00:20:05;101351.25;;;21.85;64.78
61528;BME280;47395;42.032;-8.634;2022-08-21T00:22:07;101359.69;;;21.81;65.15
61528;BME280;47395;42.032;-8.634;2022-08-21T00:24:08;101347.78;;;21.73;65.62
61528;BME280;47395;42.032;-8.634;2022-08-21T00:26:09;101352.09;;;21.64;65.83
61528;BME280;47395;42.032;-8.634;2022-08-21T00:28:10;101353.91;;;21.64;66.23
61528;BME280;47395;42.032;-8.634;2022-08-21T00:30:13;101353.91;;;21.64;65.84
61528;BME280;47395;42.032;-8.634;2022-08-21T00:32:20;101352.34;;;21.61;65.53
61528;BME280;47395;42.032;-8.634;2022-08-21T00:34:21;101348.34;;;21.56;66.23
61528;BME280;47395;42.032;-8.634;2022-08-21T00:36:22;101354.00;;;21.52;66.31
61528;BME280;47395;42.032;-8.634;2022-08-21T00:38:23;101357.13;;;21.58;65.77
61528;BME280;47395;42.032;-8.634;2022-08-21T00:40:51;101353.47;;;21.59;66.14
61528;BME280;47395;42.032;-8.634;2022-08-21T00:42:53;101360.06;;;21.55;65.97
61528;BME280;47395;42.032;-8.634;2022-08-21T00:44:53;101353.59;;;21.57;65.06
61528;BME280;47395;42.032;-8.634;2022-08-21T00:46:54;101359.81;;;21.58;65.38
61528;BME280;47395;42.032;-8.634;2022-08-21T00:48:55;101358.50;;;21.52;65.79
61528;BME280;47395;42.032;-8.634;2022-08-21T00:51:01;101352.44;;;21.50;65.84
61528;BME280;47395;42.032;-8.634;2022-08-21T00:53:05;101354.38;;;21.48;65.95
61528;BME280;47395;42.032;-8.634;2022-08-21T00:55:09;101350.41;;;21.42;66.43
61528;BME280;47395;42.032;-8.634;2022-08-21T00:57:15;101346.88;;;21.42;66.63
61528;BME280;47395;42.032;-8.634;2022-08-21T00:59:19;101348.44;;;21.44;67.07
61528;BME280;47395;42.032;-8.634;2022-08-21T01:01:20;101352.47;;;21.60;66.54
61528;BME280;47395;42.032;-8.634;2022-08-21T01:03:23;101351.03;;;21.56;66.50
61528;BME280;47395;42.032;-8.634;2022-08-21T01:05:25;101349.25;;;21.35;67.17
61528;BME280;47395;42.032;-8.634;2022-08-21T01:07:27;101353.28;;;21.29;66.86
61528;BME280;47395;42.032;-8.634;2022-08-21T01:09:28;101350.97;;;21.24;67.16
61528;BME280;47395;42.032;-8.634;2022-08-21T01:11:29;101336.13;;;21.20;67.04
61528;BME280;47395;42.032;-8.634;2022-08-21T01:13:32;101342.25;;;21.22;67.43
61528;BME280;47395;42.032;-8.634;2022-08-21T01:15:37;101336.44;;;21.17;67.25
61528;BME280;47395;42.032;-8.634;2022-08-21T01:17:38;101338.81;;;21.20;67.51
61528;BME280;47395;42.032;-8.634;2022-08-21T01:19:39;101333.41;;;21.10;68.78
61528;BME280;47395;42.032;-8.634;2022-08-21T01:21:40;101344.72;;;21.14;68.49
61528;BME280;47395;42.032;-8.634;2022-08-21T01:23:45;101334.38;;;21.09;68.41
61528;BME280;47395;42.032;-8.634;2022-08-21T01:25:46;101336.38;;;20.96;68.86
61528;BME280;47395;42.032;-8.634;2022-08-21T01:27:48;101339.41;;;21.03;68.86
61528;BME280;47395;42.032;-8.634;2022-08-21T01:29:56;101339.59;;;21.11;69.26
61528;BME280;47395;42.032;-8.634;2022-08-21T01:31:59;101337.91;;;21.10;68.55
61528;BME280;47395;42.032;-8.634;2022-08-21T01:34:00;101337.06;;;21.09;68.40
61528;BME280;47395;42.032;-8.634;2022-08-21T01:36:01;101338.28;;;21.05;68.23
61528;BME280;47395;42.032;-8.634;2022-08-21T01:38:03;101337.94;;;20.98;68.52
61528;BME280;47395;42.032;-8.634;2022-08-21T01:40:05;101333.38;;;20.89;69.10
61528;BME280;47395;42.032;-8.634;2022-08-21T01:42:06;101335.69;;;20.82;69.30
61528;BME280;47395;42.032;-8.634;2022-08-21T01:44:07;101331.44;;;20.80;69.24
61528;BME280;47395;42.032;-8.634;2022-08-21T01:46:09;101333.41;;;20.78;68.79
61528;BME280;47395;42.032;-8.634;2022-08-21T01:48:10;101332.53;;;20.77;68.70
61528;BME280;47395;42.032;-8.634;2022-08-21T01:50:14;101321.59;;;20.69;69.04
61528;BME280;47395;42.032;-8.634;2022-08-21T01:52:15;101327.22;;;20.66;69.20
61528;BME280;47395;42.032;-8.634;2022-08-21T01:54:16;101328.59;;;20.60;69.25
61528;BME280;47395;42.032;-8.634;2022-08-21T01:56:17;101335.63;;;20.61;69.51
61528;BME280;47395;42.032;-8.634;2022-08-21T01:58:18;101328.25;;;20.53;70.09
61528;BME280;47395;42.032;-8.634;2022-08-21T02:00:21;101332.03;;;20.51;70.15
61528;BME280;47395;42.032;-8.634;2022-08-21T02:02:23;101333.13;;;20.48;69.80
61528;BME280;47395;42.032;-8.634;2022-08-21T02:04:24;101321.69;;;20.46;70.04
61528;BME280;47395;42.032;-8.634;2022-08-21T02:06:25;101323.03;;;20.40;70.03
61528;BME280;47395;42.032;-8.634;2022-08-21T02:08:27;101317.09;;;20.37;70.66
61528;BME280;47395;42.032;-8.634;2022-08-21T02:10:30;101311.72;;;20.37;70.05
61528;BME280;47395;42.032;-8.634;2022-08-21T02:12:31;101308.59;;;20.31;70.38
61528;BME280;47395;42.032;-8.634;2022-08-21T02:14:32;101309.69;;;20.29;70.63
61528;BME280;47395;42.032;-8.634;2022-08-21T02:16:33;101313.59;;;20.25;70.02
61528;BME280;47395;42.032;-8.634;2022-08-21T02:18:34;101315.50;;;20.22;70.12
61528;BME280;47395;42.032;-8.634;2022-08-21T02:20:41;101314.28;;;20.27;69.89
61528;BME280;47395;42.032;-8.634;2022-08-21T02:22:42;101305.09;;;20.19;70.82
61528;BME280;47395;42.032;-8.634;2022-08-21T02:24:43;101311.53;;;20.17;71.66
61528;BME280;47395;42.032;-8.634;2022-08-21T02:26:44;101308.22;;;20.13;71.39
61528;BME280;47395;42.032;-8.634;2022-08-21T02:28:45;101305.31;;;20.16;71.24
61528;BME280;47395;42.032;-8.634;2022-08-21T02:30:47;101313.94;;;20.20;71.31
61528;BME280;47395;42.032;-8.634;2022-08-21T02:32:49;101307.00;;;20.17;70.72
61528;BME280;47395;42.032;-8.634;2022-08-21T02:34:50;101315.91;;;20.18;70.25
61528;BME280;47395;42.032;-8.634;2022-08-21T02:36:50;101313.34;;;20.16;70.46
61528;BME280;47395;42.032;-8.634;2022-08-21T02:38:51;101304.72;;;20.13;70.99
61528;BME280;47395;42.032;-8.634;2022-08-21T02:40:53;101311.03;;;20.12;70.61
61528;BME280;47395;42.032;-8.634;2022-08-21T02:42:54;101311.19;;;20.10;71.24
61528;BME280;47395;42.032;-8.634;2022-08-21T02:44:55;101304.09;;;20.09;71.38
61528;BME280;47395;42.032;-8.634;2022-08-21T02:46:56;101305.31;;;20.05;71.03
61528;BME280;47395;42.032;-8.634;2022-08-21T02:48:57;101294.91;;;20.02;71.05
61528;BME280;47395;42.032;-8.634;2022-08-21T02:51:07;101298.88;;;20.07;71.51
61528;BME280;47395;42.032;-8.634;2022-08-21T02:53:09;101312.00;;;20.11;71.11
61528;BME280;47395;42.032;-8.634;2022-08-21T02:55:10;101313.97;;;20.08;70.74
61528;BME280;47395;42.032;-8.634;2022-08-21T02:57:11;101307.75;;;20.08;70.49
61528;BME280;47395;42.032;-8.634;2022-08-21T02:59:12;101316.00;;;19.93;70.33
61528;BME280;47395;42.032;-8.634;2022-08-21T03:01:13;101313.84;;;19.99;70.46
61528;BME280;47395;42.032;-8.634;2022-08-21T03:03:14;101318.56;;;19.95;70.84
61528;BME280;47395;42.032;-8.634;2022-08-21T03:05:16;101318.22;;;19.88;71.24
61528;BME280;47395;42.032;-8.634;2022-08-21T03:07:17;101319.16;;;19.87;70.80
61528;BME280;47395;42.032;-8.634;2022-08-21T03:09:18;101326.94;;;19.90;70.88
61528;BME280;47395;42.032;-8.634;2022-08-21T03:11:19;101328.91;;;19.88;70.49
61528;BME280;47395;42.032;-8.634;2022-08-21T03:13:21;101332.44;;;19.77;70.88
61528;BME280;47395;42.032;-8.634;2022-08-21T03:15:23;101336.88;;;19.65;71.34
61528;BME280;47395;42.032;-8.634;2022-08-21T03:17:24;101331.69;;;19.64;71.66
61528;BME280;47395;42.032;-8.634;2022-08-21T03:19:25;101336.78;;;19.67;72.46
61528;BME280;47395;42.032;-8.634;2022-08-21T03:21:26;101329.84;;;19.64;72.21
61528;BME280;47395;42.032;-8.634;2022-08-21T03:23:29;101334.47;;;19.62;72.01
61528;BME280;47395;42.032;-8.634;2022-08-21T03:25:31;101339.06;;;19.60;72.48
61528;BME280;47395;42.032;-8.634;2022-08-21T03:27:33;101348.28;;;19.56;72.92
61528;BME280;47395;42.032;-8.634;2022-08-21T03:29:34;101337.97;;;19.51;72.45
61528;BME280;47395;42.032;-8.634;2022-08-21T03:31:35;101342.56;;;19.49;72.41
61528;BME280;47395;42.032;-8.634;2022-08-21T03:33:36;101348.91;;;19.48;72.05
61528;BME280;47395;42.032;-8.634;2022-08-21T03:35:36;101351.06;;;19.43;71.93
61528;BME280;47395;42.032;-8.634;2022-08-21T03:37:37;101350.47;;;19.39;72.10
61528;BME280;47395;42.032;-8.634;2022-08-21T03:39:39;101351.66;;;19.35;72.61
61528;BME280;47395;42.032;-8.634;2022-08-21T03:41:40;101343.38;;;19.27;72.44
61528;BME280;47395;42.032;-8.634;2022-08-21T03:43:40;101350.31;;;19.29;72.88
61528;BME280;47395;42.032;-8.634;2022-08-21T03:45:41;101346.56;;;19.32;73.17
61528;BME280;47395;42.032;-8.634;2022-08-21T03:48:00;101339.25;;;19.34;73.86
61528;BME280;47395;42.032;-8.634;2022-08-21T03:50:03;101341.44;;;19.29;74.61
61528;BME280;47395;42.032;-8.634;2022-08-21T03:52:04;101334.19;;;19.42;74.52
61528;BME280;47395;42.032;-8.634;2022-08-21T03:54:05;101341.97;;;19.46;74.28
61528;BME280;47395;42.032;-8.634;2022-08-21T03:56:06;101340.00;;;19.48;74.68
61528;BME280;47395;42.032;-8.634;2022-08-21T03:58:07;101339.06;;;19.49;74.94
61528;BME280;47395;42.032;-8.634;2022-08-21T04:00:09;101332.16;;;19.46;75.14
61528;BME280;47395;42.032;-8.634;2022-08-21T04:04:23;101323.50;;;19.42;75.43
61528;BME280;47395;42.032;-8.634;2022-08-21T04:06:24;101323.59;;;19.41;74.91
61528;BME280;47395;42.032;-8.634;2022-08-21T04:08:27;101325.66;;;19.37;75.49
61528;BME280;47395;42.032;-8.634;2022-08-21T04:10:29;101319.72;;;19.34;75.04
61528;BME280;47395;42.032;-8.634;2022-08-21T04:12:31;101316.06;;;19.35;75.10
61528;BME280;47395;42.032;-8.634;2022-08-21T04:14:32;101327.03;;;19.43;74.74
61528;BME280;47395;42.032;-8.634;2022-08-21T04:16:33;101317.06;;;19.45;75.10
61528;BME280;47395;42.032;-8.634;2022-08-21T04:18:34;101304.06;;;19.40;75.41
61528;BME280;47395;42.032;-8.634;2022-08-21T04:20:35;101327.41;;;19.50;75.58
61528;BME280;47395;42.032;-8.634;2022-08-21T04:22:36;101329.59;;;19.44;75.78
61528;BME280;47395;42.032;-8.634;2022-08-21T04:24:37;101313.41;;;19.35;75.98
61528;BME280;47395;42.032;-8.634;2022-08-21T04:26:38;101318.84;;;19.33;75.62
61528;BME280;47395;42.032;-8.634;2022-08-21T04:28:40;101323.88;;;19.38;76.79
61528;BME280;47395;42.032;-8.634;2022-08-21T04:30:41;101331.63;;;19.41;76.44
61528;BME280;47395;42.032;-8.634;2022-08-21T04:32:44;101329.31;;;19.36;76.66
61528;BME280;47395;42.032;-8.634;2022-08-21T04:34:46;101305.13;;;19.26;76.29
61528;BME280;47395;42.032;-8.634;2022-08-21T04:36:47;101316.44;;;19.30;77.24
61528;BME280;47395;42.032;-8.634;2022-08-21T04:38:48;101312.16;;;19.27;76.26
61528;BME280;47395;42.032;-8.634;2022-08-21T04:40:50;101322.41;;;19.34;76.61
61528;BME280;47395;42.032;-8.634;2022-08-21T04:42:54;101329.94;;;19.40;76.77
61528;BME280;47395;42.032;-8.634;2022-08-21T04:44:55;101322.53;;;19.43;76.33
61528;BME280;47395;42.032;-8.634;2022-08-21T04:46:57;101334.44;;;19.39;76.48
61528;BME280;47395;42.032;-8.634;2022-08-21T04:48:58;101342.94;;;19.44;76.51
61528;BME280;47395;42.032;-8.634;2022-08-21T04:51:14;101350.75;;;19.59;76.12
61528;BME280;47395;42.032;-8.634;2022-08-21T04:55:27;101348.66;;;19.51;76.04
61528;BME280;47395;42.032;-8.634;2022-08-21T04:57:28;101343.44;;;19.50;76.08
61528;BME280;47395;42.032;-8.634;2022-08-21T04:59:38;101337.94;;;19.40;76.49
61528;BME280;47395;42.032;-8.634;2022-08-21T05:01:41;101348.66;;;19.51;76.43
61528;BME280;47395;42.032;-8.634;2022-08-21T05:03:43;101360.06;;;19.53;76.43
61528;BME280;47395;42.032;-8.634;2022-08-21T05:05:45;101364.47;;;19.54;76.20
61528;BME280;47395;42.032;-8.634;2022-08-21T05:07:47;101362.88;;;19.52;75.83
61528;BME280;47395;42.032;-8.634;2022-08-21T05:09:48;101373.81;;;19.60;76.06
61528;BME280;47395;42.032;-8.634;2022-08-21T05:11:50;101361.91;;;19.53;75.73
61528;BME280;47395;42.032;-8.634;2022-08-21T05:13:52;101373.56;;;19.52;76.40
61528;BME280;47395;42.032;-8.634;2022-08-21T05:15:53;101366.03;;;19.46;76.40
61528;BME280;47395;42.032;-8.634;2022-08-21T05:17:54;101361.38;;;19.48;76.35
61528;BME280;47395;42.032;-8.634;2022-08-21T05:19:55;101369.19;;;19.51;76.05
61528;BME280;47395;42.032;-8.634;2022-08-21T05:21:56;101369.19;;;19.51;76.06
61528;BME280;47395;42.032;-8.634;2022-08-21T05:23:58;101375.41;;;19.63;75.58
61528;BME280;47395;42.032;-8.634;2022-08-21T05:25:59;101370.31;;;19.60;75.80
61528;BME280;47395;42.032;-8.634;2022-08-21T05:28:00;101387.72;;;19.29;78.05
61528;BME280;47395;42.032;-8.634;2022-08-21T05:30:02;101385.44;;;19.48;76.85
61528;BME280;47395;42.032;-8.634;2022-08-21T05:32:08;101364.66;;;19.40;76.50
61528;BME280;47395;42.032;-8.634;2022-08-21T05:34:10;101377.19;;;19.51;76.37
61528;BME280;47395;42.032;-8.634;2022-08-21T05:36:11;101389.84;;;19.60;76.06
61528;BME280;47395;42.032;-8.634;2022-08-21T05:38:11;101387.16;;;19.49;75.70
61528;BME280;47395;42.032;-8.634;2022-08-21T05:40:12;101383.53;;;19.50;75.34
61528;BME280;47395;42.032;-8.634;2022-08-21T05:42:14;101408.22;;;19.65;75.35
61528;BME280;47395;42.032;-8.634;2022-08-21T05:44:15;101397.09;;;19.47;75.90
61528;BME280;47395;42.032;-8.634;2022-08-21T05:46:16;101390.34;;;19.54;75.41
61528;BME280;47395;42.032;-8.634;2022-08-21T05:48:21;101401.53;;;19.59;75.30
61528;BME280;47395;42.032;-8.634;2022-08-21T05:50:22;101403.22;;;19.60;75.01
61528;BME280;47395;42.032;-8.634;2022-08-21T05:52:23;101398.34;;;19.54;74.79
61528;BME280;47395;42.032;-8.634;2022-08-21T05:54:25;101403.00;;;19.63;74.60
61528;BME280;47395;42.032;-8.634;2022-08-21T05:56:26;101415.50;;;19.63;74.71
61528;BME280;47395;42.032;-8.634;2022-08-21T05:58:27;101397.38;;;19.55;74.72
61528;BME280;47395;42.032;-8.634;2022-08-21T06:02:35;101421.38;;;19.68;74.60
61528;BME280;47395;42.032;-8.634;2022-08-21T06:04:39;101425.72;;;19.69;74.69
61528;BME280;47395;42.032;-8.634;2022-08-21T06:06:40;101420.13;;;19.72;74.94
61528;BME280;47395;42.032;-8.634;2022-08-21T06:08:41;101427.19;;;19.73;74.95
61528;BME280;47395;42.032;-8.634;2022-08-21T06:10:43;101427.91;;;19.75;74.67
61528;BME280;47395;42.032;-8.634;2022-08-21T06:12:44;101438.72;;;19.74;74.90
61528;BME280;47395;42.032;-8.634;2022-08-21T06:14:45;101441.41;;;19.74;74.57
61528;BME280;47395;42.032;-8.634;2022-08-21T06:16:46;101441.78;;;19.80;74.42
61528;BME280;47395;42.032;-8.634;2022-08-21T06:18:46;101450.06;;;19.89;74.46
61528;BME280;47395;42.032;-8.634;2022-08-21T06:20:47;101452.28;;;19.95;74.59
61528;BME280;47395;42.032;-8.634;2022-08-21T06:22:48;101451.00;;;20.69;71.60
61528;BME280;47395;42.032;-8.634;2022-08-21T06:24:49;101450.56;;;21.74;67.98
61528;BME280;47395;42.032;-8.634;2022-08-21T06:26:50;101452.03;;;22.91;63.90
61528;BME280;47395;42.032;-8.634;2022-08-21T06:28:51;101461.81;;;23.91;60.10
61528;BME280;47395;42.032;-8.634;2022-08-21T06:30:52;101460.16;;;24.66;57.82
61528;BME280;47395;42.032;-8.634;2022-08-21T06:32:52;101465.47;;;25.04;56.32
61528;BME280;47395;42.032;-8.634;2022-08-21T06:34:53;101464.63;;;25.58;54.98
61528;BME280;47395;42.032;-8.634;2022-08-21T06:36:54;101462.22;;;26.00;53.86
61528;BME280;47395;42.032;-8.634;2022-08-21T06:38:55;101473.53;;;26.30;52.61
61528;BME280;47395;42.032;-8.634;2022-08-21T06:40:56;101469.31;;;26.70;51.10
61528;BME280;47395;42.032;-8.634;2022-08-21T06:42:58;101470.81;;;26.56;52.00
61528;BME280;47395;42.032;-8.634;2022-08-21T06:44:58;101478.06;;;27.07;50.28
61528;BME280;47395;42.032;-8.634;2022-08-21T06:46:59;101483.03;;;27.79;48.48
61528;BME280;47395;42.032;-8.634;2022-08-21T06:49:00;101477.59;;;27.79;48.31
61528;BME280;47395;42.032;-8.634;2022-08-21T06:51:01;101478.56;;;28.11;47.59
61528;BME280;47395;42.032;-8.634;2022-08-21T06:53:08;101484.06;;;28.43;46.57
61528;BME280;47395;42.032;-8.634;2022-08-21T06:55:10;101478.94;;;28.56;46.31
61528;BME280;47395;42.032;-8.634;2022-08-21T06:57:11;101478.91;;;28.96;44.81
61528;BME280;47395;42.032;-8.634;2022-08-21T06:59:12;101482.28;;;29.68;43.19
61528;BME280;47395;42.032;-8.634;2022-08-21T07:01:13;101484.19;;;29.98;42.21
61528;BME280;47395;42.032;-8.634;2022-08-21T07:03:27;101484.81;;;29.70;43.19
61528;BME280;47395;42.032;-8.634;2022-08-21T07:05:29;101487.31;;;30.40;41.88
61528;BME280;47395;42.032;-8.634;2022-08-21T07:07:30;101485.06;;;30.44;41.75
61528;BME280;47395;42.032;-8.634;2022-08-21T07:09:31;101477.16;;;31.23;40.25
61528;BME280;47395;42.032;-8.634;2022-08-21T07:11:32;101484.88;;;31.63;39.35
61528;BME280;47395;42.032;-8.634;2022-08-21T07:13:32;101482.75;;;31.36;39.16
61528;BME280;47395;42.032;-8.634;2022-08-21T07:15:33;101483.00;;;31.70;39.07
61528;BME280;47395;42.032;-8.634;2022-08-21T07:17:34;101490.13;;;32.71;37.31
61528;BME280;47395;42.032;-8.634;2022-08-21T07:19:35;101488.34;;;33.39;35.98
61528;BME280;47395;42.032;-8.634;2022-08-21T07:21:36;101491.53;;;33.76;35.33
61528;BME280;47395;42.032;-8.634;2022-08-21T07:23:42;101489.63;;;33.97;34.90
61528;BME280;47395;42.032;-8.634;2022-08-21T07:25:44;101496.34;;;33.94;35.00
61528;BME280;47395;42.032;-8.634;2022-08-21T07:27:44;101485.97;;;34.30;34.81
61528;BME280;47395;42.032;-8.634;2022-08-21T07:29:45;101481.16;;;34.26;33.88
61528;BME280;47395;42.032;-8.634;2022-08-21T07:31:46;101483.75;;;33.66;34.95
61528;BME280;47395;42.032;-8.634;2022-08-21T07:33:47;101468.25;;;34.40;33.88
61528;BME280;47395;42.032;-8.634;2022-08-21T07:35:48;101473.59;;;34.67;33.48
61528;BME280;47395;42.032;-8.634;2022-08-21T07:37:49;101479.16;;;35.50;32.11
61528;BME280;47395;42.032;-8.634;2022-08-21T07:39:50;101483.78;;;35.49;31.69
61528;BME280;47395;42.032;-8.634;2022-08-21T07:41:51;101481.97;;;35.87;31.09
61528;BME280;47395;42.032;-8.634;2022-08-21T07:43:52;101474.44;;;36.01;31.10
61528;BME280;47395;42.032;-8.634;2022-08-21T07:45:53;101482.66;;;35.83;31.06
61528;BME280;47395;42.032;-8.634;2022-08-21T07:47:54;101472.78;;;36.00;30.84
61528;BME280;47395;42.032;-8.634;2022-08-21T07:49:55;101470.09;;;36.31;30.06
61528;BME280;47395;42.032;-8.634;2022-08-21T07:51:57;101472.72;;;36.75;29.80
61528;BME280;47395;42.032;-8.634;2022-08-21T07:53:58;101480.47;;;36.78;29.58
61528;BME280;47395;42.032;-8.634;2022-08-21T07:56:01;101476.47;;;37.59;28.73
61528;BME280;47395;42.032;-8.634;2022-08-21T07:58:02;101479.56;;;37.27;28.31
61528;BME280;47395;42.032;-8.634;2022-08-21T08:00:12;101474.66;;;37.29;28.33
61528;BME280;47395;42.032;-8.634;2022-08-21T08:02:28;101473.09;;;37.93;27.75
61528;BME280;47395;42.032;-8.634;2022-08-21T08:04:29;101472.19;;;38.70;26.88
61528;BME280;47395;42.032;-8.634;2022-08-21T08:06:30;101474.72;;;38.88;26.01
61528;BME280;47395;42.032;-8.634;2022-08-21T08:08:31;101468.97;;;38.32;26.76
61528;BME280;47395;42.032;-8.634;2022-08-21T08:10:32;101468.06;;;38.43;26.69
61528;BME280;47395;42.032;-8.634;2022-08-21T08:12:40;101473.19;;;39.27;26.00
61528;BME280;47395;42.032;-8.634;2022-08-21T08:14:41;101472.19;;;38.87;26.21
61528;BME280;47395;42.032;-8.634;2022-08-21T08:16:42;101476.44;;;39.24;25.80
61528;BME280;47395;42.032;-8.634;2022-08-21T08:18:43;101475.09;;;39.83;25.22
61528;BME280;47395;42.032;-8.634;2022-08-21T08:20:45;101472.03;;;40.24;24.54
61528;BME280;47395;42.032;-8.634;2022-08-21T08:22:45;101466.00;;;40.27;24.59
61528;BME280;47395;42.032;-8.634;2022-08-21T08:24:47;101465.53;;;40.58;23.62
61528;BME280;47395;42.032;-8.634;2022-08-21T08:26:48;101466.84;;;39.49;25.44
61528;BME280;47395;42.032;-8.634;2022-08-21T08:28:49;101465.88;;;39.94;24.79
61528;BME280;47395;42.032;-8.634;2022-08-21T08:30:50;101461.03;;;39.85;24.34
61528;BME280;47395;42.032;-8.634;2022-08-21T08:32:52;101472.88;;;41.40;22.54
61528;BME280;47395;42.032;-8.634;2022-08-21T08:34:53;101468.53;;;40.84;22.77
61528;BME280;47395;42.032;-8.634;2022-08-21T08:36:54;101471.84;;;41.52;22.01
61528;BME280;47395;42.032;-8.634;2022-08-21T08:38:58;101463.03;;;41.60;22.06
61528;BME280;47395;42.032;-8.634;2022-08-21T08:41:13;101461.69;;;41.73;22.04
61528;BME280;47395;42.032;-8.634;2022-08-21T08:43:14;101463.31;;;40.88;23.29
61528;BME280;47395;42.032;-8.634;2022-08-21T08:45:18;101468.41;;;41.34;22.36
61528;BME280;47395;42.032;-8.634;2022-08-21T08:47:20;101464.59;;;40.75;23.23
61528;BME280;47395;42.032;-8.634;2022-08-21T08:51:55;101461.78;;;40.42;23.56
61528;BME280;47395;42.032;-8.634;2022-08-21T08:54:03;101471.09;;;41.72;22.07
61528;BME280;47395;42.032;-8.634;2022-08-21T08:56:05;101467.84;;;41.32;22.00
61528;BME280;47395;42.032;-8.634;2022-08-21T08:58:19;101464.34;;;41.47;22.32
61528;BME280;47395;42.032;-8.634;2022-08-21T09:00:22;101465.38;;;40.42;23.19
61528;BME280;47395;42.032;-8.634;2022-08-21T09:02:23;101476.13;;;42.54;21.16
61528;BME280;47395;42.032;-8.634;2022-08-21T09:04:26;101475.31;;;42.49;20.98
61528;BME280;47395;42.032;-8.634;2022-08-21T09:06:49;101473.44;;;42.75;20.92
61528;BME280;47395;42.032;-8.634;2022-08-21T09:09:02;101475.81;;;42.35;20.44
61528;BME280;47395;42.032;-8.634;2022-08-21T09:14:37;101466.09;;;42.22;20.80
61528;BME280;47395;42.032;-8.634;2022-08-21T09:17:11;101469.69;;;41.64;21.68
61528;BME280;47395;42.032;-8.634;2022-08-21T09:19:38;101465.97;;;40.77;21.87
61528;BME280;47395;42.032;-8.634;2022-08-21T09:21:54;101465.19;;;41.53;21.46
61528;BME280;47395;42.032;-8.634;2022-08-21T09:24:22;101465.97;;;42.76;20.13
61528;BME280;47395;42.032;-8.634;2022-08-21T09:26:36;101468.66;;;43.54;19.71
61528;BME280;47395;42.032;-8.634;2022-08-21T09:28:46;101469.03;;;44.08;19.12
61528;BME280;47395;42.032;-8.634;2022-08-21T09:30:50;101462.25;;;43.64;19.00
61528;BME280;47395;42.032;-8.634;2022-08-21T09:32:54;101463.88;;;44.41;17.90
61528;BME280;47395;42.032;-8.634;2022-08-21T09:35:13;101460.69;;;44.13;19.08
61528;BME280;47395;42.032;-8.634;2022-08-21T09:37:18;101460.06;;;43.55;19.31
61528;BME280;47395;42.032;-8.634;2022-08-21T09:39:32;101455.06;;;43.63;19.41
61528;BME280;47395;42.032;-8.634;2022-08-21T09:41:38;101462.28;;;42.54;19.93
61528;BME280;47395;42.032;-8.634;2022-08-21T09:43:39;101460.13;;;42.67;19.94
61528;BME280;47395;42.032;-8.634;2022-08-21T09:45:41;101458.75;;;44.08;18.51
61528;BME280;47395;42.032;-8.634;2022-08-21T09:47:42;101464.94;;;43.95;18.82
61528;BME280;47395;42.032;-8.634;2022-08-21T09:49:44;101469.66;;;44.00;18.81
61528;BME280;47395;42.032;-8.634;2022-08-21T09:51:50;101466.91;;;43.89;18.77
61528;BME280;47395;42.032;-8.634;2022-08-21T09:54:15;101464.00;;;44.15;17.89
61528;BME280;47395;42.032;-8.634;2022-08-21T09:56:26;101461.91;;;43.86;18.52
61528;BME280;47395;42.032;-8.634;2022-08-21T09:58:47;101465.84;;;44.36;17.87
61528;BME280;47395;42.032;-8.634;2022-08-21T10:00:57;101469.03;;;43.05;19.39
61528;BME280;47395;42.032;-8.634;2022-08-21T10:03:19;101464.94;;;43.95;18.12
61528;BME280;47395;42.032;-8.634;2022-08-21T10:05:26;101466.63;;;43.86;18.74
61528;BME280;47395;42.032;-8.634;2022-08-21T10:07:30;101463.59;;;43.82;18.48
61528;BME280;47395;42.032;-8.634;2022-08-21T10:09:31;101457.28;;;43.55;18.22
61528;BME280;47395;42.032;-8.634;2022-08-21T10:11:33;101456.19;;;42.58;19.79
61528;BME280;47395;42.032;-8.634;2022-08-21T10:13:56;101463.72;;;42.99;19.84
61528;BME280;47395;42.032;-8.634;2022-08-21T10:19:02;101469.09;;;43.98;18.42
61528;BME280;47395;42.032;-8.634;2022-08-21T10:28:44;101464.81;;;43.34;18.35
61528;BME280;47395;42.032;-8.634;2022-08-21T10:31:18;101466.97;;;45.09;17.28
61528;BME280;47395;42.032;-8.634;2022-08-21T10:36:16;101459.03;;;43.10;19.83
61528;BME280;47395;42.032;-8.634;2022-08-21T10:38:45;101458.81;;;44.49;18.28
61528;BME280;47395;42.032;-8.634;2022-08-21T10:41:04;101465.59;;;44.72;16.68
61528;BME280;47395;42.032;-8.634;2022-08-21T10:43:22;101459.47;;;44.30;16.41
61528;BME280;47395;42.032;-8.634;2022-08-21T10:48:06;101451.38;;;43.83;17.46
61528;BME280;47395;42.032;-8.634;2022-08-21T10:50:38;101440.59;;;44.67;16.13
61528;BME280;47395;42.032;-8.634;2022-08-21T10:53:02;101446.69;;;45.04;16.25
61528;BME280;47395;42.032;-8.634;2022-08-21T10:55:12;101437.72;;;44.82;15.78
61528;BME280;47395;42.032;-8.634;2022-08-21T10:57:22;101432.00;;;45.57;15.13
61528;BME280;47395;42.032;-8.634;2022-08-21T10:59:48;101436.47;;;46.16;14.47
61528;BME280;47395;42.032;-8.634;2022-08-21T11:02:19;101433.03;;;46.24;14.18
61528;BME280;47395;42.032;-8.634;2022-08-21T11:04:55;101430.94;;;45.53;14.46
61528;BME280;47395;42.032;-8.634;2022-08-21T11:07:06;101417.88;;;45.24;15.01
61528;BME280;47395;42.032;-8.634;2022-08-21T11:09:16;101421.06;;;44.77;15.55